Main page
METAR-TAF:

METAR-TAF

Airports :

Visakhapatnam Airport

Visakhapatnam, India

latitude: 17-43-16N, longitude: 83-13-28E, elevation: 6 m

Current weather observation

The report was made 24 minutes ago, at 20:30 UTC
Wind 5 kt from the East/Northeast
Temperature 28°C
Humidity 74%
Pressure 1011 hPa
Visibility: 4000 m
Few clouds at a height of 1800 ft
Broken clouds at a height of 8000 ft
mist

METAR: VOVZ 282030Z 07005KT 4000 BR FEW018 BKN080 28/23 Q1011 NOSIG

Time: 02:24 (20:54 UTC)

Forecast

The report was made 54 minutes ago, at 20:00 UTC
Forecast valid from 28 at 21 UTC to 29 at 06 UTC
Wind 5 kt from the East
Visibility: 4000 m
Few clouds at a height of 1800 ft
Broken clouds at a height of 8000 ft
mist
Becoming
from 29 at 00 UTC to 29 at 02 UTC
Visibility: 3000 m
Becoming
from 29 at 03 UTC to 29 at 05 UTC
Wind 10 kt from the North/Northwest
Visibility: 4000 m
haze

TAF: VOVZ 282000Z 2821/2906 08005KT 4000 BR FEW018 BKN080 BECMG 2900/2902 3000 BECMG 2903/2905 33010KT 4000 HZ

Weather observations and forecasts of more than 4000 airports (METAR and TAF reports).

The available stations are represented by yellow and red dots on the map.

Hover mouse over dot to see the name of the station.

Then click to see weather observations and forecasts.

To change the map : click on the green buttons with a black cross to zoom in, on the green button with a dash to zoom out, or on the green arrows for adjacent maps.


METAR-TAF: